createdAt,value
2018-06-05T00:01:55.454Z,70.22
2018-06-05T00:04:24.307Z,70.08
2018-06-05T00:06:53.138Z,70.26
2018-06-05T00:09:21.987Z,70.62
2018-06-05T00:11:50.842Z,70.74
2018-06-05T00:14:19.664Z,70.51
2018-06-05T00:16:48.567Z,70.65
2018-06-05T00:19:17.416Z,70.60
2018-06-05T00:21:46.257Z,70.55
2018-06-05T00:24:15.142Z,70.17
2018-06-05T00:26:44.015Z,69.92
2018-06-05T00:29:12.886Z,70.37
2018-06-05T00:31:41.719Z,69.96
2018-06-05T00:34:10.597Z,69.76
2018-06-05T00:36:39.514Z,69.82
2018-06-05T00:39:08.375Z,68.93
2018-06-05T00:41:37.192Z,69.04
2018-06-05T00:44:06.055Z,68.21
2018-06-05T00:46:34.866Z,68.58
2018-06-05T00:49:03.738Z,68.23
2018-06-05T00:52:09.543Z,68.22
2018-06-05T00:54:38.404Z,68.30
2018-06-05T00:57:07.262Z,68.52
2018-06-05T00:59:36.161Z,68.74
2018-06-05T01:02:05.032Z,68.63
2018-06-05T01:04:33.856Z,68.00
2018-06-05T01:07:02.737Z,68.64
2018-06-05T01:09:31.567Z,68.42
2018-06-05T01:12:00.424Z,68.42
2018-06-05T01:14:29.278Z,67.99
2018-06-05T01:16:58.121Z,66.81
2018-06-05T01:19:26.956Z,67.13
2018-06-05T01:21:55.810Z,67.05
2018-06-05T01:24:24.676Z,66.79
2018-06-05T01:26:53.548Z,67.16
2018-06-05T01:29:22.362Z,67.17
2018-06-05T01:31:51.215Z,67.29
2018-06-05T01:34:20.059Z,66.42
2018-06-05T01:36:48.910Z,67.40
2018-06-05T01:39:17.794Z,67.53
2018-06-05T01:41:46.626Z,67.29
2018-06-05T01:44:15.490Z,67.40
2018-06-05T01:46:44.405Z,67.25
2018-06-05T01:49:13.257Z,67.51
2018-06-05T01:51:42.094Z,67.52
2018-06-05T01:54:10.945Z,67.33
2018-06-05T01:56:39.794Z,67.58
2018-06-05T01:59:08.638Z,67.95
2018-06-05T02:01:39.003Z,68.05
2018-06-05T02:04:07.869Z,67.06
2018-06-05T02:06:36.716Z,67.73
2018-06-05T02:09:06.469Z,67.30
2018-06-05T02:11:35.316Z,66.76
2018-06-05T02:14:04.153Z,66.86
2018-06-05T02:16:33.034Z,67.14
2018-06-05T02:19:01.887Z,67.16
2018-06-05T02:21:30.730Z,66.98
2018-06-05T02:23:59.573Z,67.12
2018-06-05T02:26:28.426Z,67.38
2018-06-05T02:28:57.261Z,67.18
2018-06-05T02:31:26.099Z,67.33
2018-06-05T02:33:54.976Z,67.12
2018-06-05T02:36:23.833Z,67.08
2018-06-05T02:38:52.661Z,67.09
2018-06-05T02:41:21.527Z,67.00
2018-06-05T02:43:50.389Z,67.01
2018-06-05T02:46:19.267Z,67.21
2018-06-05T02:48:48.095Z,67.01
2018-06-05T02:51:16.972Z,67.29
2018-06-05T02:53:45.821Z,66.97
2018-06-05T02:56:14.670Z,66.95
2018-06-05T02:58:43.513Z,67.15
2018-06-05T03:01:12.332Z,66.15
2018-06-05T03:03:41.143Z,66.59
2018-06-05T03:06:09.989Z,66.42
2018-06-05T03:08:38.812Z,66.30
2018-06-05T03:11:07.645Z,66.39
2018-06-05T03:13:36.505Z,65.39
2018-06-05T03:16:05.341Z,66.19
2018-06-05T03:18:34.194Z,66.38
2018-06-05T03:21:03.053Z,66.46
2018-06-05T03:23:31.894Z,66.25
2018-06-05T03:26:00.759Z,66.31
2018-06-05T03:28:29.581Z,66.47
2018-06-05T03:30:58.441Z,66.51
2018-06-05T03:33:27.252Z,66.46
2018-06-05T03:35:56.101Z,66.46
2018-06-05T03:38:24.970Z,66.61
2018-06-05T03:40:53.847Z,66.79
2018-06-05T03:43:22.668Z,66.80
2018-06-05T03:45:51.525Z,66.71
2018-06-05T03:48:20.354Z,67.03
2018-06-05T03:50:49.157Z,66.67
2018-06-05T03:53:17.980Z,67.01
2018-06-05T03:55:46.813Z,66.93
2018-06-05T03:58:15.672Z,67.08
2018-06-05T04:00:44.507Z,67.27
2018-06-05T04:03:13.399Z,66.87
2018-06-05T04:05:42.207Z,67.12
2018-06-05T04:08:11.065Z,67.01
2018-06-05T04:10:39.905Z,66.29
2018-06-05T04:13:08.755Z,66.26
2018-06-05T04:15:37.568Z,66.49
2018-06-05T04:18:06.459Z,66.71
2018-06-05T04:20:35.342Z,66.83
2018-06-05T04:23:04.188Z,66.89
2018-06-05T04:25:33.021Z,66.83
2018-06-05T04:28:01.907Z,66.54
2018-06-05T04:30:30.766Z,66.50
2018-06-05T04:32:59.596Z,66.28
2018-06-05T04:35:28.667Z,66.43
2018-06-05T04:37:57.662Z,66.77
2018-06-05T04:40:26.681Z,66.89
2018-06-05T04:42:55.546Z,67.07
2018-06-05T04:45:24.359Z,67.24
2018-06-05T04:47:53.221Z,67.21
2018-06-05T04:50:22.139Z,67.20
2018-06-05T04:52:51.017Z,66.54
2018-06-05T04:55:19.888Z,67.28
2018-06-05T04:57:48.710Z,67.55
2018-06-05T05:00:17.612Z,67.34
2018-06-05T05:02:46.486Z,67.15
2018-06-05T05:05:15.348Z,67.21
2018-06-05T05:07:44.359Z,67.08
2018-06-05T05:10:13.201Z,66.50
2018-06-05T05:12:42.024Z,66.73
2018-06-05T05:15:10.862Z,66.46
2018-06-05T05:17:39.682Z,66.65
2018-06-05T05:20:08.510Z,66.78
2018-06-05T05:22:37.344Z,67.04
2018-06-05T05:25:06.207Z,66.30
2018-06-05T05:27:35.069Z,66.38
2018-06-05T05:30:03.921Z,66.67
2018-06-05T05:32:32.852Z,66.77
2018-06-05T05:35:01.637Z,67.24
2018-06-05T05:37:30.517Z,67.16
2018-06-05T05:39:59.350Z,66.88
2018-06-05T05:42:28.210Z,67.15
2018-06-05T05:44:57.104Z,67.57
2018-06-05T05:47:25.902Z,67.32
2018-06-05T05:49:54.807Z,67.20
2018-06-05T05:52:23.671Z,67.64
2018-06-05T05:54:52.614Z,67.34
2018-06-05T05:57:21.450Z,67.46
2018-06-05T05:59:50.304Z,67.52
2018-06-05T06:02:19.136Z,67.65
2018-06-05T06:04:47.973Z,67.44
2018-06-05T06:07:16.828Z,67.70
2018-06-05T06:09:47.240Z,67.48
2018-06-05T06:12:16.104Z,67.31
2018-06-05T06:14:44.962Z,67.26
2018-06-05T06:17:13.795Z,67.53
2018-06-05T06:19:42.639Z,67.64
2018-06-05T06:22:11.490Z,67.49
2018-06-05T06:24:40.368Z,67.65
2018-06-05T06:27:09.184Z,67.73
2018-06-05T06:29:38.051Z,66.57
2018-06-05T06:32:07.036Z,67.57
2018-06-05T06:34:35.877Z,67.56
2018-06-05T06:37:04.735Z,67.81
2018-06-05T06:39:33.609Z,67.95
2018-06-05T06:42:02.458Z,67.29
2018-06-05T06:44:31.326Z,67.93
2018-06-05T06:47:00.188Z,67.26
2018-06-05T06:49:29.119Z,67.63
2018-06-05T06:51:57.962Z,67.52
2018-06-05T06:54:27.269Z,67.48
2018-06-05T06:56:58.939Z,67.69
2018-06-05T06:59:28.103Z,67.25
2018-06-05T07:01:57.600Z,67.73
2018-06-05T07:04:26.935Z,67.64
2018-06-05T07:06:56.108Z,67.77
2018-06-05T07:09:25.158Z,66.80
2018-06-05T07:11:59.558Z,66.57
2018-06-05T07:14:31.690Z,67.02
2018-06-05T07:17:04.024Z,67.93
2018-06-05T07:19:33.033Z,68.13
2018-06-05T07:22:07.776Z,68.17
2018-06-05T07:24:38.330Z,68.38
2018-06-05T07:27:07.336Z,68.95
2018-06-05T07:29:40.880Z,68.26
2018-06-05T07:32:14.533Z,68.73
2018-06-05T07:34:46.762Z,69.24
2018-06-05T07:37:15.884Z,69.13
2018-06-05T07:39:50.452Z,68.65
2018-06-05T07:42:19.549Z,68.96
2018-06-05T07:44:50.333Z,69.24
2018-06-05T07:47:19.733Z,69.77
2018-06-05T07:49:49.244Z,69.82
2018-06-05T07:52:20.895Z,70.15
2018-06-05T07:54:50.259Z,69.73
2018-06-05T07:57:19.798Z,69.41
2018-06-05T07:59:49.077Z,69.33
2018-06-05T08:02:18.437Z,68.87
2018-06-05T08:04:47.912Z,69.21
2018-06-05T08:07:17.021Z,69.26
2018-06-05T08:09:51.517Z,69.89
2018-06-05T08:12:26.194Z,70.35
2018-06-05T08:14:57.979Z,70.19
2018-06-05T08:17:29.603Z,70.29
2018-06-05T08:19:56.265Z,70.26
2018-06-05T08:22:29.224Z,70.02
2018-06-05T08:24:58.323Z,69.91
2018-06-05T08:27:27.554Z,69.64
2018-06-05T08:30:02.959Z,69.54
2018-06-05T08:32:31.468Z,68.90
2018-06-05T08:35:02.956Z,69.08
2018-06-05T08:37:32.062Z,68.79
2018-06-05T08:40:01.049Z,69.25
2018-06-05T08:42:33.119Z,68.88
2018-06-05T08:45:02.239Z,69.09
2018-06-05T08:47:31.527Z,68.55
2018-06-05T08:50:03.718Z,68.28
2018-06-05T08:52:32.837Z,67.16
2018-06-05T08:55:05.119Z,67.83
2018-06-05T08:57:34.332Z,68.27
2018-06-05T09:00:05.772Z,68.93
2018-06-05T09:02:38.225Z,68.64
2018-06-05T09:05:07.344Z,67.13
2018-06-05T09:07:36.224Z,67.42
2018-06-05T09:10:05.235Z,68.37
2018-06-05T09:12:34.104Z,68.03
2018-06-05T09:15:04.162Z,67.54
2018-06-05T09:17:32.920Z,66.64
2018-06-05T09:20:01.774Z,66.34
2018-06-05T09:22:30.622Z,66.09
2018-06-05T09:24:59.487Z,65.99
2018-06-05T09:27:28.545Z,65.63
2018-06-05T09:29:57.559Z,66.21
2018-06-05T09:32:29.330Z,65.78
2018-06-05T09:34:58.283Z,65.34
2018-06-05T09:37:27.161Z,64.90
2018-06-05T09:39:56.003Z,64.34
2018-06-05T09:42:24.868Z,63.56
2018-06-05T09:44:53.713Z,64.04
2018-06-05T09:47:22.997Z,64.62
2018-06-05T09:49:51.863Z,64.20
2018-06-05T09:52:20.808Z,63.73
2018-06-05T09:54:49.657Z,63.38
2018-06-05T09:57:18.535Z,63.23
2018-06-05T09:59:47.428Z,62.97
2018-06-05T10:02:16.301Z,62.26
2018-06-05T10:04:45.162Z,61.92
2018-06-05T10:07:14.014Z,62.89
2018-06-05T10:09:42.877Z,62.62
2018-06-05T10:12:11.756Z,62.92
2018-06-05T10:14:40.672Z,62.42
2018-06-05T10:17:12.442Z,63.24
2018-06-05T10:19:41.315Z,63.32
2018-06-05T10:22:10.201Z,62.35
2018-06-05T10:24:39.045Z,62.17
2018-06-05T10:27:07.937Z,61.83
2018-06-05T10:29:36.796Z,62.22
2018-06-05T10:32:05.787Z,61.69
2018-06-05T10:34:34.677Z,61.71
2018-06-05T10:37:03.657Z,60.51
2018-06-05T10:39:33.700Z,60.13
2018-06-05T10:42:02.540Z,59.99
2018-06-05T10:44:31.568Z,59.77
2018-06-05T10:47:00.656Z,60.11
2018-06-05T10:49:29.518Z,58.76
2018-06-05T10:51:58.427Z,58.47
2018-06-05T10:54:27.313Z,58.68
2018-06-05T10:56:56.234Z,58.08
2018-06-05T10:59:25.104Z,57.65
2018-06-05T11:01:53.979Z,57.81
2018-06-05T11:04:23.131Z,57.68
2018-06-05T11:06:51.996Z,58.51
2018-06-05T11:09:20.880Z,56.67
2018-06-05T11:11:49.761Z,57.01
2018-06-05T11:14:18.604Z,56.82
2018-06-05T11:16:47.440Z,57.06
2018-06-05T11:19:16.305Z,56.37
2018-06-05T11:21:45.206Z,55.30
2018-06-05T11:24:14.240Z,55.65
2018-06-05T11:26:43.101Z,54.56
2018-06-05T11:29:12.047Z,52.90
2018-06-05T11:31:40.893Z,52.05
2018-06-05T11:34:10.081Z,50.72
2018-06-05T11:36:39.124Z,51.82
2018-06-05T11:39:08.664Z,50.28
2018-06-05T11:41:37.878Z,48.59
2018-06-05T11:44:06.877Z,47.29
2018-06-05T11:46:36.118Z,48.91
2018-06-05T11:49:05.209Z,48.20
2018-06-05T11:51:34.244Z,44.20
2018-06-05T11:54:03.247Z,40.78
2018-06-05T11:56:32.093Z,38.79
2018-06-05T11:59:01.052Z,40.48
2018-06-05T12:01:29.898Z,39.54
2018-06-05T12:03:58.720Z,40.16
2018-06-05T12:06:27.581Z,40.26
2018-06-05T12:08:56.440Z,40.09
2018-06-05T12:11:25.338Z,39.32
2018-06-05T12:13:54.162Z,39.09
2018-06-05T12:16:23.028Z,39.91
2018-06-05T12:18:51.842Z,41.43
2018-06-05T12:21:20.673Z,41.28
2018-06-05T12:23:49.553Z,43.29
2018-06-05T12:26:18.400Z,43.91
2018-06-05T12:28:47.275Z,43.42
2018-06-05T12:31:16.143Z,42.37
2018-06-05T12:33:44.970Z,42.78
2018-06-05T12:36:13.861Z,42.02
2018-06-05T12:38:42.759Z,42.67
2018-06-05T12:41:11.637Z,42.24
2018-06-05T12:43:40.504Z,42.51
2018-06-05T12:46:09.328Z,41.12
2018-06-05T12:48:38.160Z,41.42
2018-06-05T12:51:07.002Z,43.48
2018-06-05T12:53:35.874Z,43.26
2018-06-05T12:56:04.779Z,41.46
2018-06-05T12:58:33.620Z,41.24
2018-06-05T13:01:02.465Z,41.74
2018-06-05T13:03:31.308Z,42.41
2018-06-05T13:06:00.118Z,41.90
2018-06-05T13:08:28.983Z,43.51
2018-06-05T13:10:57.836Z,43.78
2018-06-05T13:13:26.948Z,42.98
2018-06-05T13:15:55.797Z,42.01
2018-06-05T13:18:24.643Z,42.07
2018-06-05T13:20:53.496Z,42.75
2018-06-05T13:23:22.333Z,42.17
2018-06-05T13:25:51.159Z,43.21
2018-06-05T13:28:20.009Z,42.33
2018-06-05T13:30:48.864Z,42.31
2018-06-05T13:33:17.747Z,42.54
2018-06-05T13:35:46.677Z,41.71
2018-06-05T13:38:18.596Z,41.43
2018-06-05T13:40:47.470Z,42.28
2018-06-05T13:43:16.318Z,41.73
2018-06-05T13:45:45.173Z,41.36
2018-06-05T13:48:14.027Z,42.08
2018-06-05T13:50:42.857Z,41.75
2018-06-05T13:53:11.717Z,43.04
2018-06-05T13:55:40.631Z,42.68
2018-06-05T13:58:09.502Z,42.98
2018-06-05T14:00:41.349Z,40.91
2018-06-05T14:03:10.307Z,42.65
2018-06-05T14:05:39.131Z,41.64
2018-06-05T14:08:08.005Z,42.13
2018-06-05T14:10:36.850Z,42.06
2018-06-05T14:13:05.709Z,42.39
2018-06-05T14:15:34.553Z,43.65
2018-06-05T14:18:03.455Z,42.57
2018-06-05T14:20:32.298Z,42.46
2018-06-05T14:23:04.977Z,42.53
2018-06-05T14:25:33.817Z,42.82
2018-06-05T14:28:02.660Z,43.20
2018-06-05T14:30:31.498Z,44.19
2018-06-05T14:33:00.400Z,42.62
2018-06-05T14:35:29.239Z,43.23
2018-06-05T14:37:58.089Z,43.14
2018-06-05T14:40:26.935Z,41.52
2018-06-05T14:42:55.810Z,42.55
2018-06-05T14:45:32.092Z,43.79
2018-06-05T14:48:00.863Z,43.33
2018-06-05T14:50:29.744Z,41.71
2018-06-05T14:52:58.517Z,42.68
2018-06-05T14:55:27.387Z,43.40
2018-06-05T14:57:56.340Z,44.24
2018-06-05T15:00:25.277Z,42.50
2018-06-05T15:02:54.078Z,42.03
2018-06-05T15:05:22.926Z,42.23
2018-06-05T15:07:51.789Z,43.37
2018-06-05T15:10:20.652Z,43.29
2018-06-05T15:12:49.528Z,42.79
2018-06-05T15:15:18.431Z,43.76
2018-06-05T15:17:47.298Z,42.75
2018-06-05T15:20:16.146Z,43.28
2018-06-05T15:22:44.961Z,43.90
2018-06-05T15:25:13.873Z,44.18
2018-06-05T15:27:42.658Z,44.79
2018-06-05T15:30:17.720Z,42.88
2018-06-05T15:32:46.554Z,43.72
2018-06-05T15:35:15.466Z,43.53
2018-06-05T15:37:44.393Z,44.23
2018-06-05T15:40:13.272Z,43.58
2018-06-05T15:42:42.145Z,43.13
2018-06-05T15:45:11.005Z,44.36
2018-06-05T15:47:39.875Z,43.26
2018-06-05T15:50:08.705Z,43.89
2018-06-05T15:52:37.552Z,44.15
2018-06-05T15:55:06.446Z,45.41
2018-06-05T15:57:35.297Z,45.10
2018-06-05T16:00:04.183Z,44.57
2018-06-05T16:02:33.041Z,44.23
2018-06-05T16:05:01.908Z,44.10
2018-06-05T16:07:30.749Z,44.96
2018-06-05T16:09:59.756Z,44.17
2018-06-05T16:12:28.574Z,43.87
2018-06-05T16:14:57.499Z,44.21
2018-06-05T16:17:26.420Z,44.68
2018-06-05T16:19:55.281Z,44.13
2018-06-05T16:22:24.148Z,44.72
2018-06-05T16:24:53.009Z,44.53
2018-06-05T16:27:21.883Z,44.55
2018-06-05T16:29:50.738Z,44.58
2018-06-05T16:32:19.619Z,44.87
2018-06-05T16:34:48.501Z,45.59
2018-06-05T16:37:17.389Z,44.04
2018-06-05T16:39:46.251Z,44.03
2018-06-05T16:42:15.084Z,43.81
2018-06-05T16:44:43.970Z,44.72
2018-06-05T16:47:12.869Z,45.26
2018-06-05T16:49:41.808Z,44.88
2018-06-05T16:52:10.659Z,45.90
2018-06-05T16:54:39.517Z,45.54
2018-06-05T16:57:08.542Z,44.31
2018-06-05T16:59:37.371Z,45.36
2018-06-05T17:02:06.216Z,44.83
2018-06-05T17:04:35.168Z,44.76
2018-06-05T17:07:03.990Z,44.70
2018-06-05T17:09:32.845Z,44.69
2018-06-05T17:12:01.684Z,45.67
2018-06-05T17:14:30.557Z,45.32
2018-06-05T17:16:59.440Z,45.08
2018-06-05T17:19:31.312Z,44.99
2018-06-05T17:22:00.196Z,45.39
2018-06-05T17:24:29.037Z,45.24
2018-06-05T17:26:57.895Z,45.73
2018-06-05T17:29:26.790Z,45.61
2018-06-05T17:31:55.654Z,45.46
2018-06-05T17:34:24.547Z,46.14
2018-06-05T17:36:53.471Z,46.34
2018-06-05T17:39:22.323Z,46.61
2018-06-05T17:41:51.217Z,46.23
2018-06-05T17:44:20.107Z,46.18
2018-06-05T17:46:49.003Z,46.50
2018-06-05T17:49:18.094Z,46.90
2018-06-05T17:51:46.885Z,47.15
2018-06-05T17:54:15.784Z,47.29
2018-06-05T17:56:44.899Z,47.67
2018-06-05T17:59:13.808Z,48.19
2018-06-05T18:01:42.751Z,47.90
2018-06-05T18:04:11.635Z,48.14
2018-06-05T18:06:40.529Z,48.46
2018-06-05T18:09:09.398Z,48.62
2018-06-05T18:11:38.311Z,48.54
2018-06-05T18:14:07.192Z,48.72
2018-06-05T18:16:36.087Z,48.73
2018-06-05T18:19:04.979Z,48.90
2018-06-05T18:21:33.826Z,49.14
2018-06-05T18:24:02.725Z,49.11
2018-06-05T18:26:31.709Z,49.33
2018-06-05T18:29:00.544Z,49.81
2018-06-05T18:31:29.407Z,50.23
2018-06-05T18:33:58.339Z,50.41
2018-06-05T18:36:27.213Z,50.53
2018-06-05T18:38:56.065Z,50.42
2018-06-05T18:41:24.992Z,51.20
2018-06-05T18:43:53.897Z,51.42
2018-06-05T18:46:22.871Z,51.88
2018-06-05T18:48:55.228Z,51.48
2018-06-05T18:51:24.082Z,52.17
2018-06-05T18:53:52.941Z,52.41
2018-06-05T18:56:21.815Z,52.79
2018-06-05T18:58:50.673Z,52.87
2018-06-05T19:01:19.528Z,53.04
2018-06-05T19:03:48.386Z,53.49
2018-06-05T19:06:17.278Z,54.00
2018-06-05T19:08:46.140Z,54.38
2018-06-05T19:11:15.072Z,54.65
2018-06-05T19:13:44.463Z,54.81
2018-06-05T19:16:13.467Z,55.47
2018-06-05T19:18:44.553Z,55.83
2018-06-05T19:21:13.619Z,56.03
2018-06-05T19:23:42.981Z,56.32
2018-06-05T19:26:12.063Z,56.99
2018-06-05T19:28:41.238Z,57.16
2018-06-05T19:31:10.411Z,57.60
2018-06-05T19:33:41.335Z,57.89
2018-06-05T19:36:10.536Z,58.59
2018-06-05T19:38:41.638Z,59.20
2018-06-05T19:41:10.904Z,59.33
2018-06-05T19:43:39.951Z,59.56
2018-06-05T19:46:08.940Z,59.83
2018-06-05T19:48:38.037Z,60.34
2018-06-05T19:51:06.883Z,60.68
2018-06-05T19:53:35.861Z,60.93
2018-06-05T19:56:04.751Z,61.41
2018-06-05T19:58:33.644Z,61.54
2018-06-05T20:01:02.645Z,61.78
2018-06-05T20:03:31.570Z,62.32
2018-06-05T20:06:00.418Z,62.42
2018-06-05T20:08:29.258Z,62.81
2018-06-05T20:10:58.128Z,62.49
2018-06-05T20:13:30.085Z,63.06
2018-06-05T20:15:59.078Z,63.16
2018-06-05T20:18:28.075Z,63.29
2018-06-05T20:20:56.958Z,63.33
2018-06-05T20:23:25.849Z,63.65
2018-06-05T20:25:54.770Z,63.71
2018-06-05T20:28:23.970Z,63.92
2018-06-05T20:30:52.901Z,63.82
2018-06-05T20:33:21.827Z,64.21
2018-06-05T20:35:50.830Z,64.83
2018-06-05T20:38:19.731Z,64.82
2018-06-05T20:40:48.610Z,65.44
2018-06-05T20:43:17.507Z,65.78
2018-06-05T20:45:46.463Z,65.94
2018-06-05T20:48:15.386Z,66.12
2018-06-05T20:50:44.383Z,66.04
2018-06-05T20:53:13.219Z,65.91
2018-06-05T20:55:42.072Z,66.18
2018-06-05T20:58:10.951Z,66.30
2018-06-05T21:00:39.895Z,66.67
2018-06-05T21:03:08.738Z,66.54
2018-06-05T21:05:37.598Z,66.43
2018-06-05T21:08:06.573Z,66.74
2018-06-05T21:10:35.516Z,66.86
2018-06-05T21:13:04.409Z,67.04
2018-06-05T21:15:35.151Z,67.34
2018-06-05T21:18:04.030Z,67.61
2018-06-05T21:20:32.885Z,67.74
2018-06-05T21:23:01.776Z,67.94
2018-06-05T21:25:30.670Z,68.09
2018-06-05T21:27:59.556Z,68.31
2018-06-05T21:30:28.466Z,67.98
2018-06-05T21:32:57.384Z,68.44
2018-06-05T21:35:26.156Z,68.51
2018-06-05T21:37:55.072Z,68.87
2018-06-05T21:40:24.010Z,69.19
2018-06-05T21:42:53.036Z,69.22
2018-06-05T21:45:21.985Z,69.32
2018-06-05T21:47:50.803Z,69.18
2018-06-05T21:50:19.757Z,68.65
2018-06-05T21:52:48.644Z,68.24
2018-06-05T21:55:17.550Z,68.73
2018-06-05T21:57:46.486Z,69.22
2018-06-05T22:00:17.489Z,69.29
2018-06-05T22:02:46.423Z,69.34
2018-06-05T22:05:15.373Z,69.74
2018-06-05T22:07:44.433Z,69.80
2018-06-05T22:10:13.390Z,69.75
2018-06-05T22:12:42.237Z,70.16
2018-06-05T22:15:11.164Z,69.95
2018-06-05T22:17:40.064Z,69.84
2018-06-05T22:20:08.941Z,69.94
2018-06-05T22:22:37.850Z,69.98
2018-06-05T22:25:06.729Z,69.94
2018-06-05T22:27:35.816Z,70.01
2018-06-05T22:30:04.618Z,70.04
2018-06-05T22:32:33.518Z,70.05
2018-06-05T22:35:02.376Z,69.97
2018-06-05T22:37:31.484Z,69.97
2018-06-05T22:40:00.358Z,69.69
2018-06-05T22:42:29.261Z,70.46
2018-06-05T22:44:58.171Z,70.52
2018-06-05T22:47:27.064Z,70.35
2018-06-05T22:49:55.933Z,70.32
2018-06-05T22:52:24.814Z,70.62
2018-06-05T22:54:53.703Z,70.67
2018-06-05T22:57:22.601Z,70.71
2018-06-05T22:59:51.472Z,70.98
2018-06-05T23:02:20.373Z,70.86
2018-06-05T23:04:49.202Z,71.34
2018-06-05T23:07:18.073Z,71.32
2018-06-05T23:09:46.985Z,71.43
2018-06-05T23:12:15.867Z,71.52
2018-06-05T23:14:44.762Z,71.57
2018-06-05T23:17:13.652Z,71.46
2018-06-05T23:19:42.509Z,71.74
2018-06-05T23:22:11.438Z,71.58
2018-06-05T23:24:40.294Z,71.64
2018-06-05T23:27:09.179Z,71.28
2018-06-05T23:29:38.075Z,71.36
2018-06-05T23:32:07.261Z,71.41
2018-06-05T23:34:36.138Z,70.87
2018-06-05T23:37:05.024Z,71.57
2018-06-05T23:39:33.911Z,71.50
2018-06-05T23:42:02.774Z,71.42
2018-06-05T23:44:31.666Z,71.31
2018-06-05T23:47:00.569Z,71.54
2018-06-05T23:49:29.449Z,71.49
2018-06-05T23:52:01.066Z,71.57
2018-06-05T23:54:29.947Z,71.77
2018-06-05T23:56:58.850Z,71.85
2018-06-05T23:59:27.732Z,71.62
